sensor_id;sensor_type;location;lat;lon;timestamp;pressure;altitude;pressure_sealevel;temperature;humidity
41688;BME280;27371;42.686;23.362;2023-07-02T00:02:23;167019.53;;;18.46;86.38
41688;BME280;27371;42.686;23.362;2023-07-02T00:04:52;167015.53;;;18.44;86.75
41688;BME280;27371;42.686;23.362;2023-07-02T00:07:17;166928.31;;;18.11;86.63
41688;BME280;27371;42.686;23.362;2023-07-02T00:09:43;167031.63;;;18.51;86.40
41688;BME280;27371;42.686;23.362;2023-07-02T00:12:09;167031.63;;;18.51;86.33
41688;BME280;27371;42.686;23.362;2023-07-02T00:14:35;167047.72;;;18.57;86.43
41688;BME280;27371;42.686;23.362;2023-07-02T00:17:00;167049.06;;;18.57;85.98
41688;BME280;27371;42.686;23.362;2023-07-02T00:19:26;167032.97;;;18.51;86.46
41688;BME280;27371;42.686;23.362;2023-07-02T00:21:51;166914.88;;;18.06;86.93
41688;BME280;27371;42.686;23.362;2023-07-02T00:24:19;167058.50;;;18.61;87.05
41688;BME280;27371;42.686;23.362;2023-07-02T00:26:44;167018.19;;;18.45;87.01
41688;BME280;27371;42.686;23.362;2023-07-02T00:29:10;167019.53;;;18.46;87.43
41688;BME280;27371;42.686;23.362;2023-07-02T00:31:36;167006.09;;;18.41;87.61
41688;BME280;27371;42.686;23.362;2023-07-02T00:34:02;167007.44;;;18.41;87.56
41688;BME280;27371;42.686;23.362;2023-07-02T00:36:28;167059.81;;;18.61;87.67
41688;BME280;27371;42.686;23.362;2023-07-02T00:38:54;167061.16;;;18.62;87.26
41688;BME280;27371;42.686;23.362;2023-07-02T00:41:20;167057.09;;;18.60;87.46
41688;BME280;27371;42.686;23.362;2023-07-02T00:43:46;167028.91;;;18.50;87.91
41688;BME280;27371;42.686;23.362;2023-07-02T00:46:13;167050.41;;;18.58;87.68
41688;BME280;27371;42.686;23.362;2023-07-02T00:48:44;167058.50;;;18.61;87.25
41688;BME280;27371;42.686;23.362;2023-07-02T00:51:13;167063.81;;;18.63;86.75
41688;BME280;27371;42.686;23.362;2023-07-02T00:53:40;167034.28;;;18.52;86.30
41688;BME280;27371;42.686;23.362;2023-07-02T00:56:05;167067.88;;;18.64;86.06
41688;BME280;27371;42.686;23.362;2023-07-02T00:58:31;167058.50;;;18.61;86.05
41688;BME280;27371;42.686;23.362;2023-07-02T01:00:58;167066.53;;;18.64;85.41
41688;BME280;27371;42.686;23.362;2023-07-02T01:03:24;167037.00;;;18.53;85.12
41688;BME280;27371;42.686;23.362;2023-07-02T01:05:50;167014.16;;;18.44;84.44
41688;BME280;27371;42.686;23.362;2023-07-02T01:08:15;167041.00;;;18.54;84.38
41688;BME280;27371;42.686;23.362;2023-07-02T01:10:41;167032.97;;;18.51;83.96
41688;BME280;27371;42.686;23.362;2023-07-02T01:13:14;167023.59;;;18.47;84.16
41688;BME280;27371;42.686;23.362;2023-07-02T01:15:42;167024.91;;;18.48;84.18
41688;BME280;27371;42.686;23.362;2023-07-02T01:18:10;167027.59;;;18.49;84.09
41688;BME280;27371;42.686;23.362;2023-07-02T01:20:36;167035.63;;;18.52;84.12
41688;BME280;27371;42.686;23.362;2023-07-02T01:23:02;167043.69;;;18.55;84.01
41688;BME280;27371;42.686;23.362;2023-07-02T01:25:29;167016.88;;;18.45;84.10
41688;BME280;27371;42.686;23.362;2023-07-02T01:27:55;167010.16;;;18.42;84.28
41688;BME280;27371;42.686;23.362;2023-07-02T01:30:21;166994.06;;;18.36;84.91
41688;BME280;27371;42.686;23.362;2023-07-02T01:32:47;166994.06;;;18.36;85.25
41688;BME280;27371;42.686;23.362;2023-07-02T01:35:13;166969.88;;;18.27;85.95
41688;BME280;27371;42.686;23.362;2023-07-02T01:37:38;166928.31;;;18.11;86.30
41688;BME280;27371;42.686;23.362;2023-07-02T01:40:04;166896.06;;;17.99;87.39
41688;BME280;27371;42.686;23.362;2023-07-02T01:42:33;166916.19;;;18.07;88.37
41688;BME280;27371;42.686;23.362;2023-07-02T01:44:59;166894.72;;;17.98;88.52
41688;BME280;27371;42.686;23.362;2023-07-02T01:47:25;166875.94;;;17.91;88.42
41688;BME280;27371;42.686;23.362;2023-07-02T01:49:51;166855.84;;;17.84;89.06
41688;BME280;27371;42.686;23.362;2023-07-02T01:52:17;166804.75;;;17.64;90.22
41688;BME280;27371;42.686;23.362;2023-07-02T01:54:43;166786.00;;;17.57;90.83
41688;BME280;27371;42.686;23.362;2023-07-02T01:57:09;166779.28;;;17.54;91.70
41688;BME280;27371;42.686;23.362;2023-07-02T01:59:35;166730.97;;;17.36;91.80
41688;BME280;27371;42.686;23.362;2023-07-02T02:02:01;166786.00;;;17.57;92.11
41688;BME280;27371;42.686;23.362;2023-07-02T02:04:26;166786.00;;;17.57;91.86
41688;BME280;27371;42.686;23.362;2023-07-02T02:06:52;166748.44;;;17.43;91.85
41688;BME280;27371;42.686;23.362;2023-07-02T02:09:18;166740.41;;;17.40;92.20
41688;BME280;27371;42.686;23.362;2023-07-02T02:11:46;166726.97;;;17.34;92.52
41688;BME280;27371;42.686;23.362;2023-07-02T02:14:12;166712.22;;;17.29;93.33
41688;BME280;27371;42.686;23.362;2023-07-02T02:16:38;166684.06;;;17.18;94.18
41688;BME280;27371;42.686;23.362;2023-07-02T02:19:04;166646.50;;;17.04;94.99
41688;BME280;27371;42.686;23.362;2023-07-02T02:21:29;166638.41;;;17.01;95.33
41688;BME280;27371;42.686;23.362;2023-07-02T02:23:55;166590.16;;;16.82;95.93
41688;BME280;27371;42.686;23.362;2023-07-02T02:26:21;166661.25;;;17.09;95.86
41688;BME280;27371;42.686;23.362;2023-07-02T02:28:47;166654.56;;;17.07;95.15
41688;BME280;27371;42.686;23.362;2023-07-02T02:31:14;166633.09;;;16.99;95.19
41688;BME280;27371;42.686;23.362;2023-07-02T02:33:39;166642.47;;;17.02;94.92
41688;BME280;27371;42.686;23.362;2023-07-02T02:36:05;166639.78;;;17.01;95.19
41688;BME280;27371;42.686;23.362;2023-07-02T02:38:30;166661.25;;;17.09;94.83
41688;BME280;27371;42.686;23.362;2023-07-02T02:40:56;166659.88;;;17.09;95.66
41688;BME280;27371;42.686;23.362;2023-07-02T02:43:21;166666.59;;;17.11;95.90
41688;BME280;27371;42.686;23.362;2023-07-02T02:45:47;166676.00;;;17.15;96.30
41688;BME280;27371;42.686;23.362;2023-07-02T02:48:13;166681.34;;;17.17;96.33
41688;BME280;27371;42.686;23.362;2023-07-02T02:50:39;166682.72;;;17.18;95.53
41688;BME280;27371;42.686;23.362;2023-07-02T02:53:08;166685.38;;;17.19;95.23
41688;BME280;27371;42.686;23.362;2023-07-02T02:55:34;166696.09;;;17.23;95.62
41688;BME280;27371;42.686;23.362;2023-07-02T02:57:59;166709.50;;;17.28;95.50
41688;BME280;27371;42.686;23.362;2023-07-02T03:00:25;166722.94;;;17.33;95.33
41688;BME280;27371;42.686;23.362;2023-07-02T03:02:50;166710.84;;;17.28;96.08
41688;BME280;27371;42.686;23.362;2023-07-02T03:05:16;166721.59;;;17.32;96.03
41688;BME280;27371;42.686;23.362;2023-07-02T03:07:41;166724.28;;;17.33;96.51
41688;BME280;27371;42.686;23.362;2023-07-02T03:10:07;166721.59;;;17.32;96.34
41688;BME280;27371;42.686;23.362;2023-07-02T03:12:33;166726.97;;;17.34;96.69
41688;BME280;27371;42.686;23.362;2023-07-02T03:14:58;166717.56;;;17.31;96.99
41688;BME280;27371;42.686;23.362;2023-07-02T03:17:24;166710.84;;;17.28;97.71
41688;BME280;27371;42.686;23.362;2023-07-02T03:19:50;166682.72;;;17.18;98.38
41688;BME280;27371;42.686;23.362;2023-07-02T03:22:16;166701.47;;;17.25;98.15
41688;BME280;27371;42.686;23.362;2023-07-02T03:24:41;166697.47;;;17.23;97.29
41688;BME280;27371;42.686;23.362;2023-07-02T03:27:07;166701.47;;;17.25;96.99
41688;BME280;27371;42.686;23.362;2023-07-02T03:29:34;166747.06;;;17.42;96.05
41688;BME280;27371;42.686;23.362;2023-07-02T03:32:00;166747.06;;;17.42;95.72
41688;BME280;27371;42.686;23.362;2023-07-02T03:34:26;166757.81;;;17.46;96.13
41688;BME280;27371;42.686;23.362;2023-07-02T03:36:52;166764.53;;;17.49;95.60
41688;BME280;27371;42.686;23.362;2023-07-02T03:39:18;166780.63;;;17.55;95.17
41688;BME280;27371;42.686;23.362;2023-07-02T03:41:44;166780.63;;;17.55;94.82
41688;BME280;27371;42.686;23.362;2023-07-02T03:44:09;166773.91;;;17.52;95.46
41688;BME280;27371;42.686;23.362;2023-07-02T03:46:35;166786.00;;;17.57;95.40
41688;BME280;27371;42.686;23.362;2023-07-02T03:49:01;166781.94;;;17.55;95.30
41688;BME280;27371;42.686;23.362;2023-07-02T03:51:26;166800.75;;;17.63;95.39
41688;BME280;27371;42.686;23.362;2023-07-02T03:53:52;166781.94;;;17.55;96.18
41688;BME280;27371;42.686;23.362;2023-07-02T03:56:17;166777.97;;;17.54;96.97
41688;BME280;27371;42.686;23.362;2023-07-02T03:58:43;166783.28;;;17.56;97.04
41688;BME280;27371;42.686;23.362;2023-07-02T04:01:08;166845.06;;;17.79;97.36
41688;BME280;27371;42.686;23.362;2023-07-02T04:03:34;166842.41;;;17.78;96.58
41688;BME280;27371;42.686;23.362;2023-07-02T04:06:00;166822.22;;;17.71;97.15
41688;BME280;27371;42.686;23.362;2023-07-02T04:08:25;166808.81;;;17.66;97.37
41688;BME280;27371;42.686;23.362;2023-07-02T04:10:54;166790.00;;;17.58;97.90
41688;BME280;27371;42.686;23.362;2023-07-02T04:13:19;166759.16;;;17.47;98.25
41688;BME280;27371;42.686;23.362;2023-07-02T04:15:45;166763.19;;;17.48;98.62
41688;BME280;27371;42.686;23.362;2023-07-02T04:18:11;166745.72;;;17.42;98.98
41688;BME280;27371;42.686;23.362;2023-07-02T04:20:36;166745.72;;;17.42;99.20
41688;BME280;27371;42.686;23.362;2023-07-02T04:23:05;166729.66;;;17.35;99.34
41688;BME280;27371;42.686;23.362;2023-07-02T04:25:30;166716.22;;;17.30;99.97
41688;BME280;27371;42.686;23.362;2023-07-02T04:27:56;166726.97;;;17.34;100.00
41688;BME280;27371;42.686;23.362;2023-07-02T04:30:24;166708.19;;;17.27;100.00
41688;BME280;27371;42.686;23.362;2023-07-02T04:32:50;166728.31;;;17.35;100.00
41688;BME280;27371;42.686;23.362;2023-07-02T04:35:16;166677.34;;;17.16;100.00
41688;BME280;27371;42.686;23.362;2023-07-02T04:37:41;166705.53;;;17.26;100.00
41688;BME280;27371;42.686;23.362;2023-07-02T04:40:07;166712.22;;;17.29;100.00
41688;BME280;27371;42.686;23.362;2023-07-02T04:42:42;166702.81;;;17.25;100.00
41688;BME280;27371;42.686;23.362;2023-07-02T04:45:13;166752.44;;;17.44;100.00
41688;BME280;27371;42.686;23.362;2023-07-02T04:47:41;166739.03;;;17.39;99.96
41688;BME280;27371;42.686;23.362;2023-07-02T04:50:07;166759.16;;;17.47;99.65
41688;BME280;27371;42.686;23.362;2023-07-02T04:52:32;166783.28;;;17.56;98.74
41688;BME280;27371;42.686;23.362;2023-07-02T04:54:58;166804.75;;;17.64;98.42
41688;BME280;27371;42.686;23.362;2023-07-02T04:57:26;166824.88;;;17.72;98.17
41688;BME280;27371;42.686;23.362;2023-07-02T04:59:53;166828.94;;;17.73;97.95
41688;BME280;27371;42.686;23.362;2023-07-02T05:02:19;166851.78;;;17.82;97.16
41688;BME280;27371;42.686;23.362;2023-07-02T05:04:45;166866.56;;;17.88;97.25
41688;BME280;27371;42.686;23.362;2023-07-02T05:07:11;166828.94;;;17.73;96.88
41688;BME280;27371;42.686;23.362;2023-07-02T05:09:36;166909.50;;;18.04;96.24
41688;BME280;27371;42.686;23.362;2023-07-02T05:12:02;166886.69;;;17.95;95.78
41688;BME280;27371;42.686;23.362;2023-07-02T05:14:27;166866.56;;;17.88;96.19
41688;BME280;27371;42.686;23.362;2023-07-02T05:16:53;166906.81;;;18.03;96.37
41688;BME280;27371;42.686;23.362;2023-07-02T05:19:18;166882.63;;;17.94;96.07
41688;BME280;27371;42.686;23.362;2023-07-02T05:21:44;166933.63;;;18.13;95.71
41688;BME280;27371;42.686;23.362;2023-07-02T05:24:09;166940.34;;;18.16;95.60
41688;BME280;27371;42.686;23.362;2023-07-02T05:26:35;166948.38;;;18.19;95.21
41688;BME280;27371;42.686;23.362;2023-07-02T05:29:01;166900.13;;;18.00;94.43
41688;BME280;27371;42.686;23.362;2023-07-02T05:31:26;166877.25;;;17.92;94.02
41688;BME280;27371;42.686;23.362;2023-07-02T05:33:53;166921.59;;;18.09;93.84
41688;BME280;27371;42.686;23.362;2023-07-02T05:36:19;166925.59;;;18.10;93.71
41688;BME280;27371;42.686;23.362;2023-07-02T05:38:45;166960.50;;;18.23;93.84
41688;BME280;27371;42.686;23.362;2023-07-02T05:41:11;166960.50;;;18.23;94.30
41688;BME280;27371;42.686;23.362;2023-07-02T05:43:36;166971.19;;;18.28;94.10
41688;BME280;27371;42.686;23.362;2023-07-02T05:46:02;166996.72;;;18.37;94.24
41688;BME280;27371;42.686;23.362;2023-07-02T05:48:28;167022.25;;;18.47;93.19
41688;BME280;27371;42.686;23.362;2023-07-02T05:50:53;167032.97;;;18.51;92.67
41688;BME280;27371;42.686;23.362;2023-07-02T05:53:19;167019.53;;;18.46;91.74
41688;BME280;27371;42.686;23.362;2023-07-02T05:55:45;167073.25;;;18.66;91.00
41688;BME280;27371;42.686;23.362;2023-07-02T05:58:10;167121.59;;;18.85;90.32
41688;BME280;27371;42.686;23.362;2023-07-02T06:00:36;167157.84;;;18.99;87.95
41688;BME280;27371;42.686;23.362;2023-07-02T06:03:02;167200.81;;;19.15;87.05
41688;BME280;27371;42.686;23.362;2023-07-02T06:05:28;167222.31;;;19.23;85.17
41688;BME280;27371;42.686;23.362;2023-07-02T06:07:53;167222.31;;;19.23;82.75
41688;BME280;27371;42.686;23.362;2023-07-02T06:10:18;167261.28;;;19.38;83.20
41688;BME280;27371;42.686;23.362;2023-07-02T06:12:44;167312.31;;;19.57;82.00
41688;BME280;27371;42.686;23.362;2023-07-02T06:15:10;167368.72;;;19.79;81.27
41688;BME280;27371;42.686;23.362;2023-07-02T06:17:35;167434.53;;;20.04;79.73
41688;BME280;27371;42.686;23.362;2023-07-02T06:20:05;167484.25;;;20.23;78.27
41688;BME280;27371;42.686;23.362;2023-07-02T06:22:31;167519.19;;;20.36;78.19
41688;BME280;27371;42.686;23.362;2023-07-02T06:24:57;167548.75;;;20.47;76.96
41688;BME280;27371;42.686;23.362;2023-07-02T06:27:22;167564.91;;;20.54;76.21
41688;BME280;27371;42.686;23.362;2023-07-02T06:29:48;167550.09;;;20.48;76.13
41688;BME280;27371;42.686;23.362;2023-07-02T06:32:13;167517.84;;;20.36;75.94
41688;BME280;27371;42.686;23.362;2023-07-02T06:34:39;167550.09;;;20.48;76.51
41688;BME280;27371;42.686;23.362;2023-07-02T06:37:05;167577.03;;;20.58;76.45
41688;BME280;27371;42.686;23.362;2023-07-02T06:39:31;167597.19;;;20.66;75.90
41688;BME280;27371;42.686;23.362;2023-07-02T06:41:57;167618.69;;;20.74;76.78
41688;BME280;27371;42.686;23.362;2023-07-02T06:44:22;167640.19;;;20.82;76.58
41688;BME280;27371;42.686;23.362;2023-07-02T06:46:48;167652.31;;;20.87;75.29
41688;BME280;27371;42.686;23.362;2023-07-02T06:49:13;167685.88;;;21.00;74.94
41688;BME280;27371;42.686;23.362;2023-07-02T06:51:39;167687.19;;;21.00;74.11
41688;BME280;27371;42.686;23.362;2023-07-02T06:54:05;167708.72;;;21.08;73.20
41688;BME280;27371;42.686;23.362;2023-07-02T06:56:30;167638.84;;;20.82;74.02
41688;BME280;27371;42.686;23.362;2023-07-02T06:58:58;167594.53;;;20.65;74.92
41688;BME280;27371;42.686;23.362;2023-07-02T07:01:23;167618.69;;;20.74;75.52
41688;BME280;27371;42.686;23.362;2023-07-02T07:03:49;167470.81;;;20.18;75.05
41688;BME280;27371;42.686;23.362;2023-07-02T07:06:15;167617.34;;;20.74;75.43
41688;BME280;27371;42.686;23.362;2023-07-02T07:08:40;167617.34;;;20.74;75.10
41688;BME280;27371;42.686;23.362;2023-07-02T07:11:06;167646.91;;;20.85;74.64
41688;BME280;27371;42.686;23.362;2023-07-02T07:13:31;167671.09;;;20.94;74.61
41688;BME280;27371;42.686;23.362;2023-07-02T07:15:57;167710.09;;;21.09;73.89
41688;BME280;27371;42.686;23.362;2023-07-02T07:18:23;167691.25;;;21.02;73.10
41688;BME280;27371;42.686;23.362;2023-07-02T07:20:48;167671.09;;;20.94;73.38
41688;BME280;27371;42.686;23.362;2023-07-02T07:23:15;167661.69;;;20.90;73.42
41688;BME280;27371;42.686;23.362;2023-07-02T07:25:42;167712.75;;;21.10;72.63
41688;BME280;27371;42.686;23.362;2023-07-02T07:28:07;167703.38;;;21.06;72.62
41688;BME280;27371;42.686;23.362;2023-07-02T07:30:37;167722.16;;;21.13;72.47
41688;BME280;27371;42.686;23.362;2023-07-02T07:33:02;167754.44;;;21.26;72.10
41688;BME280;27371;42.686;23.362;2023-07-02T07:35:28;167778.63;;;21.35;71.60
41688;BME280;27371;42.686;23.362;2023-07-02T07:37:53;167781.28;;;21.36;71.31
41688;BME280;27371;42.686;23.362;2023-07-02T07:40:19;167829.75;;;21.54;69.80
41688;BME280;27371;42.686;23.362;2023-07-02T07:42:44;167833.81;;;21.56;69.55
41688;BME280;27371;42.686;23.362;2023-07-02T07:45:11;167867.38;;;21.69;69.98
41688;BME280;27371;42.686;23.362;2023-07-02T07:47:36;167849.94;;;21.62;69.16
41688;BME280;27371;42.686;23.362;2023-07-02T07:50:02;167844.53;;;21.60;69.58
41688;BME280;27371;42.686;23.362;2023-07-02T07:52:28;167824.34;;;21.52;70.80
41688;BME280;27371;42.686;23.362;2023-07-02T07:54:53;167837.81;;;21.57;70.95
41688;BME280;27371;42.686;23.362;2023-07-02T07:57:19;167909.06;;;21.85;70.72
41688;BME280;27371;42.686;23.362;2023-07-02T07:59:44;167979.00;;;22.11;69.44
41688;BME280;27371;42.686;23.362;2023-07-02T08:02:10;167987.06;;;22.14;68.20
41688;BME280;27371;42.686;23.362;2023-07-02T08:04:35;168024.75;;;22.29;67.58
41688;BME280;27371;42.686;23.362;2023-07-02T08:07:01;167996.53;;;22.18;67.84
41688;BME280;27371;42.686;23.362;2023-07-02T08:09:29;168053.00;;;22.39;67.17
41688;BME280;27371;42.686;23.362;2023-07-02T08:11:55;168016.69;;;22.26;66.83
41688;BME280;27371;42.686;23.362;2023-07-02T08:14:20;168063.75;;;22.43;67.05
41688;BME280;27371;42.686;23.362;2023-07-02T08:16:46;168110.84;;;22.61;66.81
41688;BME280;27371;42.686;23.362;2023-07-02T08:19:12;168164.63;;;22.82;66.33
41688;BME280;27371;42.686;23.362;2023-07-02T08:21:37;168217.13;;;23.02;64.34
41688;BME280;27371;42.686;23.362;2023-07-02T08:24:03;168160.63;;;22.80;62.25
41688;BME280;27371;42.686;23.362;2023-07-02T08:26:29;168235.97;;;23.09;62.22
41688;BME280;27371;42.686;23.362;2023-07-02T08:28:54;168274.97;;;23.24;62.45
41688;BME280;27371;42.686;23.362;2023-07-02T08:31:20;168292.50;;;23.30;62.13
41688;BME280;27371;42.686;23.362;2023-07-02T08:33:46;168308.63;;;23.37;61.78
41688;BME280;27371;42.686;23.362;2023-07-02T08:36:11;168289.78;;;23.29;61.67
41688;BME280;27371;42.686;23.362;2023-07-02T08:38:39;168262.91;;;23.19;62.73
41688;BME280;27371;42.686;23.362;2023-07-02T08:41:07;168227.91;;;23.06;63.47
41688;BME280;27371;42.686;23.362;2023-07-02T08:43:32;168198.28;;;22.95;63.66
41688;BME280;27371;42.686;23.362;2023-07-02T08:45:59;168223.84;;;23.04;63.60
41688;BME280;27371;42.686;23.362;2023-07-02T08:48:26;168252.13;;;23.15;63.52
41688;BME280;27371;42.686;23.362;2023-07-02T08:50:51;168279.03;;;23.25;62.89
41688;BME280;27371;42.686;23.362;2023-07-02T08:53:17;168273.63;;;23.23;62.82
41688;BME280;27371;42.686;23.362;2023-07-02T08:55:43;168277.69;;;23.25;63.04
41688;BME280;27371;42.686;23.362;2023-07-02T08:58:08;168238.66;;;23.10;62.92
41688;BME280;27371;42.686;23.362;2023-07-02T09:00:34;168256.16;;;23.17;62.86
41688;BME280;27371;42.686;23.362;2023-07-02T09:03:15;168258.84;;;23.18;63.16
41688;BME280;27371;42.686;23.362;2023-07-02T09:05:51;168264.25;;;23.20;61.24
41688;BME280;27371;42.686;23.362;2023-07-02T09:08:24;168242.72;;;23.11;61.74
41688;BME280;27371;42.686;23.362;2023-07-02T09:10:50;168367.81;;;23.59;62.07
41688;BME280;27371;42.686;23.362;2023-07-02T09:13:16;168421.75;;;23.80;62.21
41688;BME280;27371;42.686;23.362;2023-07-02T09:15:42;168436.53;;;23.85;58.91
41688;BME280;27371;42.686;23.362;2023-07-02T09:18:15;168447.28;;;23.89;58.32
41688;BME280;27371;42.686;23.362;2023-07-02T09:20:41;168427.09;;;23.82;56.89
41688;BME280;27371;42.686;23.362;2023-07-02T09:23:07;168435.19;;;23.85;55.83
41688;BME280;27371;42.686;23.362;2023-07-02T09:25:40;168419.00;;;23.78;56.20
41688;BME280;27371;42.686;23.362;2023-07-02T09:28:19;168406.94;;;23.74;57.58
41688;BME280;27371;42.686;23.362;2023-07-02T09:30:55;168431.16;;;23.83;58.78
41688;BME280;27371;42.686;23.362;2023-07-02T09:33:24;168450.00;;;23.90;59.18
41688;BME280;27371;42.686;23.362;2023-07-02T09:35:49;168495.75;;;24.08;59.43
41688;BME280;27371;42.686;23.362;2023-07-02T09:38:16;168514.56;;;24.15;59.83
41688;BME280;27371;42.686;23.362;2023-07-02T09:40:50;168517.28;;;24.16;60.78
41688;BME280;27371;42.686;23.362;2023-07-02T09:43:16;168536.09;;;24.23;60.98
41688;BME280;27371;42.686;23.362;2023-07-02T09:45:48;168568.44;;;24.35;60.58
41688;BME280;27371;42.686;23.362;2023-07-02T09:48:16;168622.31;;;24.56;58.99
41688;BME280;27371;42.686;23.362;2023-07-02T09:50:43;168660.03;;;24.70;58.10
41688;BME280;27371;42.686;23.362;2023-07-02T09:53:09;168674.84;;;24.76;57.16
41688;BME280;27371;42.686;23.362;2023-07-02T09:55:39;168680.19;;;24.78;56.79
41688;BME280;27371;42.686;23.362;2023-07-02T09:58:05;168655.97;;;24.69;56.64
41688;BME280;27371;42.686;23.362;2023-07-02T10:00:31;168678.84;;;24.77;57.07
41688;BME280;27371;42.686;23.362;2023-07-02T10:02:56;168686.94;;;24.80;55.89
41688;BME280;27371;42.686;23.362;2023-07-02T10:05:29;168677.53;;;24.77;55.56
41688;BME280;27371;42.686;23.362;2023-07-02T10:07:56;168703.06;;;24.86;54.83
41688;BME280;27371;42.686;23.362;2023-07-02T10:12:53;168748.88;;;25.04;54.02
41688;BME280;27371;42.686;23.362;2023-07-02T10:15:28;168744.81;;;25.02;54.39
41688;BME280;27371;42.686;23.362;2023-07-02T10:17:58;168736.75;;;24.99;53.60
41688;BME280;27371;42.686;23.362;2023-07-02T10:20:51;168701.75;;;24.86;54.26
41688;BME280;27371;42.686;23.362;2023-07-02T10:23:16;168721.94;;;24.94;54.14
41688;BME280;27371;42.686;23.362;2023-07-02T10:25:43;168712.53;;;24.90;53.46
41688;BME280;27371;42.686;23.362;2023-07-02T10:28:18;168703.06;;;24.86;55.21
41688;BME280;27371;42.686;23.362;2023-07-02T10:30:45;168676.19;;;24.76;55.49
41688;BME280;27371;42.686;23.362;2023-07-02T10:33:13;168685.59;;;24.80;55.59
41688;BME280;27371;42.686;23.362;2023-07-02T10:35:39;168637.09;;;24.61;55.82
41688;BME280;27371;42.686;23.362;2023-07-02T10:38:07;168783.97;;;25.17;55.62
41688;BME280;27371;42.686;23.362;2023-07-02T10:40:32;168800.09;;;25.23;54.88
41688;BME280;27371;42.686;23.362;2023-07-02T10:42:59;168829.72;;;25.35;53.99
41688;BME280;27371;42.686;23.362;2023-07-02T10:45:32;168856.69;;;25.45;54.36
41688;BME280;27371;42.686;23.362;2023-07-02T10:47:58;168914.59;;;25.67;54.09
41688;BME280;27371;42.686;23.362;2023-07-02T10:50:24;168964.44;;;25.86;52.69
41688;BME280;27371;42.686;23.362;2023-07-02T10:52:51;168983.31;;;25.93;50.73
41688;BME280;27371;42.686;23.362;2023-07-02T10:55:20;169085.69;;;26.32;50.03
41688;BME280;27371;42.686;23.362;2023-07-02T10:57:48;169145.00;;;26.54;50.23
41688;BME280;27371;42.686;23.362;2023-07-02T11:00:14;169228.59;;;26.86;49.25
41688;BME280;27371;42.686;23.362;2023-07-02T11:02:40;169267.66;;;27.01;47.11
41688;BME280;27371;42.686;23.362;2023-07-02T11:05:07;169228.59;;;26.86;47.22
41688;BME280;27371;42.686;23.362;2023-07-02T11:07:38;169212.41;;;26.80;46.87
41688;BME280;27371;42.686;23.362;2023-07-02T11:10:04;169194.88;;;26.73;46.74
41688;BME280;27371;42.686;23.362;2023-07-02T11:12:31;169229.91;;;26.86;46.35
41688;BME280;27371;42.686;23.362;2023-07-02T11:15:10;169235.31;;;26.88;45.42
41688;BME280;27371;42.686;23.362;2023-07-02T11:17:37;169289.22;;;27.09;44.48
41688;BME280;27371;42.686;23.362;2023-07-02T11:20:03;169308.16;;;27.16;44.38
41688;BME280;27371;42.686;23.362;2023-07-02T11:22:36;169421.34;;;27.59;43.25
41688;BME280;27371;42.686;23.362;2023-07-02T11:25:09;169484.75;;;27.83;43.44
41688;BME280;27371;42.686;23.362;2023-07-02T11:27:35;169549.47;;;28.08;42.37
41688;BME280;27371;42.686;23.362;2023-07-02T11:30:01;169608.78;;;28.30;41.22
41688;BME280;27371;42.686;23.362;2023-07-02T11:32:26;169607.47;;;28.30;40.68
41688;BME280;27371;42.686;23.362;2023-07-02T11:34:55;169684.38;;;28.59;40.10
41688;BME280;27371;42.686;23.362;2023-07-02T11:37:21;169693.81;;;28.62;40.79
41688;BME280;27371;42.686;23.362;2023-07-02T11:39:47;169638.44;;;28.41;42.93
41688;BME280;27371;42.686;23.362;2023-07-02T11:42:13;169587.22;;;28.22;44.70
41688;BME280;27371;42.686;23.362;2023-07-02T11:44:38;169482.09;;;27.82;46.03
41688;BME280;27371;42.686;23.362;2023-07-02T11:47:04;169424.06;;;27.60;46.90
41688;BME280;27371;42.686;23.362;2023-07-02T11:49:30;169337.78;;;27.27;47.65
41688;BME280;27371;42.686;23.362;2023-07-02T11:51:55;169295.94;;;27.12;48.14
41688;BME280;27371;42.686;23.362;2023-07-02T11:54:21;169344.53;;;27.30;48.65
41688;BME280;27371;42.686;23.362;2023-07-02T11:56:47;169364.75;;;27.38;48.23
41688;BME280;27371;42.686;23.362;2023-07-02T11:59:13;169401.16;;;27.51;47.94
41688;BME280;27371;42.686;23.362;2023-07-02T12:01:38;169418.66;;;27.58;48.22
41688;BME280;27371;42.686;23.362;2023-07-02T12:04:04;169482.09;;;27.82;46.61
41688;BME280;27371;42.686;23.362;2023-07-02T12:06:33;169511.75;;;27.93;45.31
41688;BME280;27371;42.686;23.362;2023-07-02T12:08:58;169548.13;;;28.07;45.30
41688;BME280;27371;42.686;23.362;2023-07-02T12:11:24;169554.88;;;28.10;42.73
41688;BME280;27371;42.686;23.362;2023-07-02T12:13:49;169566.97;;;28.14;41.20
41688;BME280;27371;42.686;23.362;2023-07-02T12:16:15;169552.16;;;28.09;41.36
41688;BME280;27371;42.686;23.362;2023-07-02T12:18:41;169486.09;;;27.84;40.49
41688;BME280;27371;42.686;23.362;2023-07-02T12:21:06;169398.44;;;27.50;40.59
41688;BME280;27371;42.686;23.362;2023-07-02T12:23:32;169340.47;;;27.28;41.56
41688;BME280;27371;42.686;23.362;2023-07-02T12:25:57;169275.72;;;27.04;42.65
41688;BME280;27371;42.686;23.362;2023-07-02T12:28:23;169239.34;;;26.90;44.93
41688;BME280;27371;42.686;23.362;2023-07-02T12:30:49;169201.63;;;26.76;47.63
41688;BME280;27371;42.686;23.362;2023-07-02T12:33:14;169146.34;;;26.55;50.69
41688;BME280;27371;42.686;23.362;2023-07-02T12:35:40;169097.84;;;26.36;52.79
41688;BME280;27371;42.686;23.362;2023-07-02T12:38:05;169037.19;;;26.13;53.49
41688;BME280;27371;42.686;23.362;2023-07-02T12:40:33;168987.38;;;25.94;55.06